createdAt,value
2019-04-10T00:01:55.540Z,11.35
2019-04-10T00:04:25.298Z,12.23
2019-04-10T00:07:06.974Z,11.63
2019-04-10T00:09:27.394Z,11.38
2019-04-10T00:11:57.062Z,11.40
2019-04-10T00:14:26.445Z,12.35
2019-04-10T00:16:56.443Z,12.75
2019-04-10T00:19:26.772Z,10.72
2019-04-10T00:21:56.097Z,10.93
2019-04-10T00:24:26.061Z,12.05
2019-04-10T00:26:56.412Z,11.83
2019-04-10T00:29:25.878Z,11.60
2019-04-10T00:31:56.286Z,11.93
2019-04-10T00:34:25.839Z,10.98
2019-04-10T00:36:55.164Z,10.93
2019-04-10T00:39:24.560Z,11.05
2019-04-10T00:41:54.684Z,11.63
2019-04-10T00:44:25.822Z,11.48
2019-04-10T00:46:55.236Z,10.35
2019-04-10T00:49:24.602Z,10.18
2019-04-10T00:51:53.931Z,11.15
2019-04-10T00:54:23.720Z,10.90
2019-04-10T00:56:53.066Z,11.65
2019-04-10T00:59:22.393Z,11.10
2019-04-10T01:01:52.126Z,11.40
2019-04-10T01:04:22.433Z,10.60
2019-04-10T01:06:52.519Z,10.68
2019-04-10T01:09:21.933Z,11.22
2019-04-10T01:11:51.672Z,11.55
2019-04-10T01:14:21.330Z,10.70
2019-04-10T01:16:51.510Z,10.98
2019-04-10T01:19:21.160Z,11.00
2019-04-10T01:21:50.723Z,10.80
2019-04-10T01:24:20.103Z,10.88
2019-04-10T01:26:49.694Z,10.95
2019-04-10T01:29:19.664Z,10.58
2019-04-10T01:31:51.194Z,10.90
2019-04-10T01:34:21.079Z,11.20
2019-04-10T01:36:50.544Z,10.93
2019-04-10T01:39:22.624Z,11.55
2019-04-10T01:41:52.306Z,11.00
2019-04-10T01:44:22.748Z,10.53
2019-04-10T01:46:52.919Z,10.28
2019-04-10T01:49:22.598Z,10.60
2019-04-10T01:51:51.929Z,11.08
2019-04-10T01:54:21.330Z,10.48
2019-04-10T01:56:50.687Z,9.98
2019-04-10T01:59:21.699Z,10.25
2019-04-10T02:01:52.677Z,10.43
2019-04-10T02:04:22.770Z,10.48
2019-04-10T02:06:52.189Z,10.25
2019-04-10T02:09:21.565Z,10.50
2019-04-10T02:11:50.904Z,10.23
2019-04-10T02:14:20.526Z,10.72
2019-04-10T02:16:49.951Z,10.32
2019-04-10T02:19:19.345Z,10.40
2019-04-10T02:21:49.591Z,10.32
2019-04-10T02:24:19.082Z,9.98
2019-04-10T02:26:48.414Z,10.08
2019-04-10T02:29:17.752Z,10.25
2019-04-10T02:31:48.469Z,10.25
2019-04-10T02:34:19.280Z,9.90
2019-04-10T02:36:50.683Z,10.15
2019-04-10T02:39:29.817Z,9.53
2019-04-10T02:41:52.295Z,10.60
2019-04-10T02:44:22.971Z,10.13
2019-04-10T02:46:54.895Z,11.22
2019-04-10T02:49:24.687Z,10.70
2019-04-10T02:51:55.017Z,10.35
2019-04-10T02:54:25.111Z,9.70
2019-04-10T02:56:54.942Z,10.65
2019-04-10T02:59:24.445Z,10.30
2019-04-10T03:01:53.855Z,10.70
2019-04-10T03:04:24.436Z,10.85
2019-04-10T03:06:55.405Z,10.45
2019-04-10T03:09:37.104Z,11.03
2019-04-10T03:11:57.304Z,10.85
2019-04-10T03:14:28.281Z,10.95
2019-04-10T03:16:57.869Z,10.45
2019-04-10T03:19:27.697Z,11.18
2019-04-10T03:21:57.698Z,10.15
2019-04-10T03:24:27.483Z,10.00
2019-04-10T03:26:56.845Z,11.15
2019-04-10T03:29:26.183Z,10.35
2019-04-10T03:31:57.637Z,11.25
2019-04-10T03:34:31.045Z,10.15
2019-04-10T03:37:00.011Z,11.15
2019-04-10T03:39:33.342Z,11.00
2019-04-10T03:42:01.486Z,10.93
2019-04-10T03:44:32.521Z,11.55
2019-04-10T03:47:02.872Z,11.78
2019-04-10T03:49:32.221Z,11.68
2019-04-10T03:52:03.061Z,11.60
2019-04-10T03:54:32.521Z,11.90
2019-04-10T03:57:02.483Z,12.98
2019-04-10T03:59:32.648Z,11.05
2019-04-10T04:02:03.094Z,11.18
2019-04-10T04:04:33.355Z,11.12
2019-04-10T04:07:02.827Z,10.65
2019-04-10T04:09:32.165Z,10.72
2019-04-10T04:12:02.329Z,10.75
2019-04-10T04:14:32.591Z,10.63
2019-04-10T04:17:02.072Z,10.65
2019-04-10T04:19:32.389Z,10.68
2019-04-10T04:22:01.709Z,11.08
2019-04-10T04:24:31.558Z,10.80
2019-04-10T04:27:00.956Z,10.93
2019-04-10T04:29:30.630Z,11.10
2019-04-10T04:32:01.135Z,11.22
2019-04-10T04:34:31.301Z,11.03
2019-04-10T04:37:00.597Z,10.72
2019-04-10T04:39:30.523Z,10.93
2019-04-10T04:42:00.915Z,10.13
2019-04-10T04:44:31.108Z,11.12
2019-04-10T04:47:01.466Z,10.48
2019-04-10T04:49:30.792Z,10.65
2019-04-10T04:52:00.275Z,11.28
2019-04-10T04:54:29.564Z,10.93
2019-04-10T04:56:58.895Z,10.48
2019-04-10T04:59:28.231Z,11.00
2019-04-10T05:01:57.552Z,11.45
2019-04-10T05:04:27.064Z,10.53
2019-04-10T05:06:58.105Z,10.93
2019-04-10T05:09:34.281Z,10.68
2019-04-10T05:11:58.609Z,10.15
2019-04-10T05:14:29.495Z,10.72
2019-04-10T05:16:59.540Z,9.93
2019-04-10T05:19:29.742Z,10.10
2019-04-10T05:21:59.480Z,9.40
2019-04-10T05:24:30.034Z,9.20
2019-04-10T05:26:59.737Z,9.80
2019-04-10T05:29:30.802Z,9.68
2019-04-10T05:32:01.533Z,10.20
2019-04-10T05:34:30.861Z,10.75
2019-04-10T05:37:00.496Z,10.35
2019-04-10T05:39:39.806Z,11.40
2019-04-10T05:42:02.488Z,10.68
2019-04-10T05:44:32.111Z,10.98
2019-04-10T05:47:01.673Z,10.13
2019-04-10T05:49:31.134Z,9.85
2019-04-10T05:52:00.392Z,10.38
2019-04-10T05:54:29.720Z,11.08
2019-04-10T05:56:59.275Z,9.30
2019-04-10T05:59:28.606Z,9.23
2019-04-10T06:01:58.917Z,10.28
2019-04-10T06:04:29.460Z,9.43
2019-04-10T06:06:58.961Z,9.08
2019-04-10T06:09:28.950Z,9.88
2019-04-10T06:11:58.214Z,9.63
2019-04-10T06:14:28.511Z,10.00
2019-04-10T06:16:59.713Z,9.88
2019-04-10T06:19:28.906Z,9.90
2019-04-10T06:21:58.442Z,10.03
2019-04-10T06:24:27.976Z,10.30
2019-04-10T06:26:59.594Z,10.05
2019-04-10T06:29:29.257Z,8.70
2019-04-10T06:31:58.592Z,8.68
2019-04-10T06:34:28.018Z,9.63
2019-04-10T06:36:57.748Z,9.63
2019-04-10T06:39:27.109Z,8.90
2019-04-10T06:41:56.458Z,9.48
2019-04-10T06:44:25.936Z,8.83
2019-04-10T06:46:55.288Z,8.80
2019-04-10T06:49:24.933Z,9.35
2019-04-10T06:51:54.220Z,9.98
2019-04-10T06:54:24.510Z,9.60
2019-04-10T06:56:54.554Z,9.18
2019-04-10T06:59:26.094Z,9.10
2019-04-10T07:01:57.049Z,8.40
2019-04-10T07:04:26.650Z,9.43
2019-04-10T07:07:03.049Z,8.35
2019-04-10T07:09:27.611Z,9.90
2019-04-10T07:12:01.359Z,9.00
2019-04-10T07:14:29.858Z,9.60
2019-04-10T07:17:05.062Z,9.43
2019-04-10T07:19:30.580Z,8.13
2019-04-10T07:22:01.457Z,10.03
2019-04-10T07:24:36.941Z,9.90
2019-04-10T07:27:04.619Z,9.30
2019-04-10T07:29:34.220Z,9.58
2019-04-10T07:32:07.769Z,9.68
2019-04-10T07:34:35.989Z,9.25
2019-04-10T07:37:05.739Z,8.93
2019-04-10T07:39:35.331Z,8.75
2019-04-10T07:42:04.622Z,8.25
2019-04-10T07:44:34.181Z,9.10
2019-04-10T07:47:04.703Z,8.28
2019-04-10T07:49:34.976Z,8.28
2019-04-10T07:52:05.360Z,8.45
2019-04-10T07:54:35.674Z,9.00
2019-04-10T07:57:05.003Z,8.70
2019-04-10T07:59:35.485Z,9.13
2019-04-10T08:02:07.364Z,9.90
2019-04-10T08:04:37.311Z,10.72
2019-04-10T08:07:07.310Z,10.38
2019-04-10T08:09:37.660Z,10.93
2019-04-10T08:12:07.276Z,9.30
2019-04-10T08:14:37.841Z,9.35
2019-04-10T08:17:07.953Z,9.00
2019-04-10T08:19:37.334Z,10.15
2019-04-10T08:22:06.682Z,10.05
2019-04-10T08:24:37.107Z,9.65
2019-04-10T08:27:07.381Z,10.48
2019-04-10T08:29:36.872Z,9.90
2019-04-10T08:32:06.227Z,10.85
2019-04-10T08:34:35.807Z,10.50
2019-04-10T08:37:05.364Z,11.80
2019-04-10T08:39:41.683Z,11.35
2019-04-10T08:42:07.057Z,10.88
2019-04-10T08:44:36.401Z,11.00
2019-04-10T08:47:06.779Z,12.93
2019-04-10T08:49:36.772Z,11.83
2019-04-10T08:52:06.276Z,11.25
2019-04-10T08:54:36.378Z,10.75
2019-04-10T08:57:07.328Z,11.25
2019-04-10T08:59:36.915Z,11.18
2019-04-10T09:02:06.571Z,7.12
2019-04-10T09:04:36.953Z,9.75
2019-04-10T09:07:06.883Z,10.53
2019-04-10T09:09:37.416Z,6.03
2019-04-10T09:12:07.322Z,10.15
2019-04-10T09:14:37.187Z,11.15
2019-04-10T09:17:07.038Z,10.80
2019-04-10T09:19:36.369Z,10.58
2019-04-10T09:22:06.012Z,5.35
2019-04-10T09:24:36.225Z,11.40
2019-04-10T09:27:05.672Z,13.28
2019-04-10T09:29:36.118Z,12.85
2019-04-10T09:32:06.404Z,13.88
2019-04-10T09:34:36.038Z,14.00
2019-04-10T09:37:06.017Z,14.13
2019-04-10T09:39:35.933Z,13.43
2019-04-10T09:42:06.688Z,13.78
2019-04-10T09:44:36.355Z,12.25
2019-04-10T09:47:07.693Z,9.28
2019-04-10T09:49:41.994Z,6.25
2019-04-10T09:52:08.130Z,8.28
2019-04-10T09:54:38.230Z,5.15
2019-04-10T09:57:07.830Z,14.47
2019-04-10T09:59:39.674Z,10.55
2019-04-10T10:02:09.240Z,14.55
2019-04-10T10:04:39.743Z,13.98
2019-04-10T10:07:10.323Z,14.03
2019-04-10T10:09:40.911Z,12.23
2019-04-10T10:12:11.568Z,12.47
2019-04-10T10:14:42.165Z,12.68
2019-04-10T10:17:12.595Z,13.40
2019-04-10T10:19:42.604Z,13.03
2019-04-10T10:22:12.733Z,13.43
2019-04-10T10:24:42.643Z,13.15
2019-04-10T10:27:11.945Z,12.85
2019-04-10T10:29:41.931Z,12.78
2019-04-10T10:32:11.216Z,12.47
2019-04-10T10:34:40.831Z,13.28
2019-04-10T10:37:10.528Z,12.23
2019-04-10T10:39:41.084Z,12.78
2019-04-10T10:42:11.580Z,12.98
2019-04-10T10:44:41.011Z,12.35
2019-04-10T10:47:10.363Z,12.10
2019-04-10T10:49:40.243Z,12.30
2019-04-10T10:52:09.765Z,12.55
2019-04-10T10:54:39.098Z,11.73
2019-04-10T10:57:09.030Z,11.93
2019-04-10T10:59:38.369Z,12.35
2019-04-10T11:02:08.570Z,11.83
2019-04-10T11:04:37.950Z,13.98
2019-04-10T11:07:08.618Z,12.10
2019-04-10T11:09:38.492Z,12.50
2019-04-10T11:12:07.908Z,13.08
2019-04-10T11:14:37.493Z,12.45
2019-04-10T11:17:06.823Z,11.60
2019-04-10T11:19:37.139Z,11.83
2019-04-10T11:22:07.410Z,11.95
2019-04-10T11:24:38.295Z,11.75
2019-04-10T11:27:08.805Z,11.00
2019-04-10T11:29:39.060Z,11.70
2019-04-10T11:32:09.337Z,10.98
2019-04-10T11:34:38.699Z,11.22
2019-04-10T11:37:23.089Z,11.20
2019-04-10T11:39:43.267Z,10.65
2019-04-10T11:42:10.208Z,10.60
2019-04-10T11:44:41.698Z,10.35
2019-04-10T11:47:10.658Z,9.88
2019-04-10T11:49:43.028Z,10.70
2019-04-10T11:52:13.937Z,10.08
2019-04-10T11:54:44.919Z,10.32
2019-04-10T11:57:16.156Z,9.85
2019-04-10T11:59:48.457Z,10.82
2019-04-10T12:02:20.418Z,9.63
2019-04-10T12:04:53.887Z,10.10
2019-04-10T12:12:19.922Z,9.98
2019-04-10T12:14:50.048Z,10.50
2019-04-10T12:17:20.114Z,10.20
2019-04-10T12:19:49.455Z,10.30
2019-04-10T12:22:19.166Z,10.10
2019-04-10T12:24:49.943Z,9.63
2019-04-10T12:27:19.688Z,9.08
2019-04-10T12:29:49.033Z,9.75
2019-04-10T12:32:18.865Z,10.10
2019-04-10T12:34:48.707Z,9.38
2019-04-10T12:37:18.215Z,10.32
2019-04-10T12:39:47.615Z,10.72
2019-04-10T12:42:17.204Z,9.73
2019-04-10T12:44:47.180Z,9.65
2019-04-10T12:47:17.526Z,10.48
2019-04-10T12:49:47.724Z,9.30
2019-04-10T12:52:17.020Z,8.98
2019-04-10T12:54:47.044Z,8.73
2019-04-10T12:57:17.007Z,8.08
2019-04-10T12:59:47.619Z,8.28
2019-04-10T13:02:17.138Z,5.65
2019-04-10T13:04:47.078Z,7.70
2019-04-10T13:07:16.381Z,5.47
2019-04-10T13:09:46.348Z,6.05
2019-04-10T13:12:15.971Z,4.12
2019-04-10T13:14:46.443Z,4.08
2019-04-10T13:17:16.526Z,6.53
2019-04-10T13:19:45.837Z,8.40
2019-04-10T13:22:15.921Z,7.70
2019-04-10T13:24:45.892Z,6.97
2019-04-10T13:27:15.404Z,6.40
2019-04-10T13:29:44.739Z,7.92
2019-04-10T13:32:14.067Z,8.00
2019-04-10T13:34:43.792Z,7.83
2019-04-10T13:37:13.364Z,7.47
2019-04-10T13:39:43.320Z,7.97
2019-04-10T13:42:12.800Z,8.30
2019-04-10T13:44:42.521Z,7.90
2019-04-10T13:47:11.916Z,8.23
2019-04-10T13:49:42.047Z,7.22
2019-04-10T13:52:12.005Z,7.90
2019-04-10T13:54:41.306Z,7.83
2019-04-10T13:57:11.807Z,7.53
2019-04-10T13:59:41.480Z,7.72
2019-04-10T14:02:13.164Z,7.55
2019-04-10T14:04:43.495Z,7.00
2019-04-10T14:07:13.063Z,7.15
2019-04-10T14:09:48.076Z,7.83
2019-04-10T14:12:14.467Z,6.70
2019-04-10T14:14:44.616Z,8.03
2019-04-10T14:17:13.943Z,6.58
2019-04-10T14:19:43.274Z,7.37
2019-04-10T14:22:13.556Z,7.35
2019-04-10T14:24:46.404Z,7.10
2019-04-10T14:27:18.636Z,7.05
2019-04-10T14:29:49.063Z,7.00
2019-04-10T14:32:20.793Z,7.75
2019-04-10T14:34:50.490Z,8.08
2019-04-10T14:37:21.120Z,8.48
2019-04-10T14:39:51.566Z,7.25
2019-04-10T14:42:21.054Z,7.60
2019-04-10T14:44:50.407Z,7.60
2019-04-10T14:47:20.308Z,7.30
2019-04-10T14:49:49.692Z,7.10
2019-04-10T14:52:19.037Z,7.40
2019-04-10T14:54:48.369Z,7.03
2019-04-10T14:57:18.845Z,7.30
2019-04-10T14:59:49.253Z,6.50
2019-04-10T15:02:18.895Z,6.70
2019-04-10T15:04:49.064Z,7.12
2019-04-10T15:07:18.434Z,8.20
2019-04-10T15:09:47.782Z,7.20
2019-04-10T15:12:18.470Z,7.35
2019-04-10T15:14:47.978Z,6.62
2019-04-10T15:17:18.921Z,7.20
2019-04-10T15:19:50.605Z,6.62
2019-04-10T15:22:19.986Z,7.50
2019-04-10T15:24:49.663Z,6.90
2019-04-10T15:27:19.484Z,7.08
2019-04-10T15:29:49.142Z,7.03
2019-04-10T15:32:18.525Z,7.20
2019-04-10T15:34:48.377Z,7.20
2019-04-10T15:37:18.062Z,7.45
2019-04-10T15:39:47.400Z,6.87
2019-04-10T15:42:16.732Z,6.90
2019-04-10T15:44:46.140Z,7.05
2019-04-10T15:47:19.651Z,6.17
2019-04-10T15:49:47.681Z,6.22
2019-04-10T15:52:17.703Z,6.80
2019-04-10T15:54:47.924Z,6.10
2019-04-10T15:57:18.442Z,6.78
2019-04-10T15:59:48.341Z,6.17
2019-04-10T16:02:17.837Z,5.75
2019-04-10T16:04:47.231Z,4.00
2019-04-10T16:07:16.624Z,7.00
2019-04-10T16:09:50.738Z,7.42
2019-04-10T16:12:18.954Z,6.92
2019-04-10T16:14:48.636Z,7.20
2019-04-10T16:17:19.719Z,6.05
2019-04-10T16:19:59.789Z,7.17
2019-04-10T16:22:36.745Z,7.90
2019-04-10T16:25:09.596Z,6.90
2019-04-10T16:27:39.132Z,6.72
2019-04-10T16:30:10.568Z,6.35
2019-04-10T16:32:39.896Z,7.03
2019-04-10T16:35:09.386Z,6.92
2019-04-10T16:37:39.847Z,7.28
2019-04-10T16:40:10.476Z,7.75
2019-04-10T16:42:41.683Z,6.50
2019-04-10T16:45:11.473Z,7.58
2019-04-10T16:47:41.954Z,7.42
2019-04-10T16:50:11.668Z,6.35
2019-04-10T16:52:41.064Z,6.87
2019-04-10T16:55:10.809Z,7.08
2019-04-10T16:57:40.467Z,7.05
2019-04-10T17:00:14.183Z,7.03
2019-04-10T17:02:42.459Z,6.95
2019-04-10T17:05:12.405Z,7.28
2019-04-10T17:07:41.794Z,6.92
2019-04-10T17:10:18.205Z,7.05
2019-04-10T17:12:42.796Z,7.35
2019-04-10T17:15:12.407Z,7.55
2019-04-10T17:17:42.314Z,7.12
2019-04-10T17:20:11.953Z,7.42
2019-04-10T17:22:45.270Z,7.67
2019-04-10T17:25:13.758Z,7.90
2019-04-10T17:27:43.779Z,7.72
2019-04-10T17:30:13.605Z,8.08
2019-04-10T17:32:42.962Z,7.75
2019-04-10T17:35:13.673Z,7.33
2019-04-10T17:37:43.028Z,7.40
2019-04-10T17:40:28.818Z,7.33
2019-04-10T17:42:46.396Z,8.85
2019-04-10T17:45:15.802Z,7.67
2019-04-10T17:47:45.529Z,7.00
2019-04-10T17:50:18.234Z,6.35
2019-04-10T17:52:49.056Z,7.92
2019-04-10T17:55:19.621Z,6.87
2019-04-10T17:57:49.063Z,8.50
2019-04-10T18:00:27.291Z,7.72
2019-04-10T18:02:57.193Z,8.23
2019-04-10T18:05:26.652Z,7.33
2019-04-10T18:07:56.571Z,7.12
2019-04-10T18:10:34.386Z,6.50
2019-04-10T18:12:57.084Z,6.17
2019-04-10T18:15:28.287Z,6.22
2019-04-10T18:17:57.735Z,6.55
2019-04-10T18:20:28.185Z,6.95
2019-04-10T18:22:58.736Z,6.50
2019-04-10T18:25:28.202Z,6.37
2019-04-10T18:27:57.533Z,6.28
2019-04-10T18:30:27.987Z,6.28
2019-04-10T18:32:58.165Z,6.25
2019-04-10T18:35:27.608Z,7.03
2019-04-10T18:37:58.301Z,5.95
2019-04-10T18:40:28.890Z,6.17
2019-04-10T18:42:59.559Z,6.12
2019-04-10T18:45:31.006Z,6.45
2019-04-10T18:48:00.628Z,6.45
2019-04-10T18:50:32.145Z,6.10
2019-04-10T18:53:01.747Z,6.08
2019-04-10T18:55:32.198Z,5.40
2019-04-10T18:58:03.650Z,6.47
2019-04-10T19:00:51.252Z,5.90
2019-04-10T19:03:23.506Z,6.00
2019-04-10T19:05:58.338Z,6.10
2019-04-10T19:08:28.155Z,5.80
2019-04-10T19:11:10.822Z,5.90
2019-04-10T19:13:28.912Z,5.87
2019-04-10T19:15:59.210Z,5.90
2019-04-10T19:18:29.817Z,6.00
2019-04-10T19:21:00.247Z,5.90
2019-04-10T19:23:30.753Z,6.03
2019-04-10T19:26:00.249Z,6.50
2019-04-10T19:28:36.002Z,5.42
2019-04-10T19:31:15.753Z,5.95
2019-04-10T19:33:39.466Z,5.65
2019-04-10T19:36:09.816Z,5.33
2019-04-10T19:38:41.179Z,6.03
2019-04-10T19:41:21.313Z,5.25
2019-04-10T19:43:42.202Z,5.22
2019-04-10T19:46:12.403Z,5.83
2019-04-10T19:48:41.845Z,5.53
2019-04-10T19:51:12.108Z,4.95
2019-04-10T19:53:41.600Z,5.67
2019-04-10T19:56:11.051Z,5.42
2019-04-10T19:58:40.377Z,5.87
2019-04-10T20:01:10.855Z,5.30
2019-04-10T20:03:40.200Z,5.53
2019-04-10T20:06:09.614Z,5.97
2019-04-10T20:08:39.823Z,5.78
2019-04-10T20:11:09.364Z,5.60
2019-04-10T20:13:38.865Z,6.60
2019-04-10T20:16:09.108Z,5.65
2019-04-10T20:18:39.039Z,5.53
2019-04-10T20:21:08.441Z,5.45
2019-04-10T20:23:38.351Z,5.87
2019-04-10T20:26:07.746Z,5.72
2019-04-10T20:28:37.087Z,6.15
2019-04-10T20:31:08.920Z,5.70
2019-04-10T20:33:38.878Z,5.80
2019-04-10T20:36:08.919Z,5.15
2019-04-10T20:38:38.798Z,5.22
2019-04-10T20:41:09.152Z,5.60
2019-04-10T20:43:39.380Z,6.08
2019-04-10T20:46:09.816Z,5.85
2019-04-10T20:48:40.312Z,5.62
2019-04-10T20:51:09.705Z,5.97
2019-04-10T20:53:40.231Z,6.10
2019-04-10T20:56:10.427Z,5.87
2019-04-10T20:58:40.285Z,5.42
2019-04-10T21:01:10.399Z,6.25
2019-04-10T21:03:40.292Z,5.42
2019-04-10T21:06:09.549Z,5.00
2019-04-10T21:08:38.873Z,5.47
2019-04-10T21:11:09.523Z,4.92
2019-04-10T21:13:38.829Z,5.20
2019-04-10T21:16:09.179Z,4.97
2019-04-10T21:18:39.762Z,6.03
2019-04-10T21:21:10.274Z,5.00
2019-04-10T21:23:40.337Z,5.05
2019-04-10T21:26:10.245Z,5.60
2019-04-10T21:28:39.699Z,5.85
2019-04-10T21:31:11.697Z,5.92
2019-04-10T21:33:59.035Z,5.62
2019-04-10T21:36:28.496Z,5.67
2019-04-10T21:38:57.865Z,5.10
2019-04-10T21:41:27.155Z,5.00
2019-04-10T21:43:56.473Z,5.30
2019-04-10T21:46:28.467Z,5.90
2019-04-10T21:48:57.905Z,5.33
2019-04-10T21:51:28.538Z,5.35
2019-04-10T21:53:57.993Z,5.97
2019-04-10T21:56:27.293Z,5.75
2019-04-10T21:58:57.383Z,5.40
2019-04-10T22:01:26.733Z,5.80
2019-04-10T22:03:58.432Z,5.67
2019-04-10T22:06:30.192Z,5.70
2019-04-10T22:09:01.881Z,5.85
2019-04-10T22:11:33.318Z,5.72
2019-04-10T22:14:02.694Z,5.85
2019-04-10T22:16:32.015Z,5.72
2019-04-10T22:19:01.599Z,5.40
2019-04-10T22:21:31.277Z,5.90
2019-04-10T22:24:00.969Z,5.58
2019-04-10T22:26:30.369Z,5.55
2019-04-10T22:28:59.781Z,5.28
2019-04-10T22:31:29.190Z,5.00
2019-04-10T22:33:58.875Z,5.53
2019-04-10T22:36:29.140Z,5.33
2019-04-10T22:38:58.843Z,4.85
2019-04-10T22:41:30.838Z,4.70
2019-04-10T22:43:59.146Z,4.70
2019-04-10T22:46:29.949Z,5.37
2019-04-10T22:48:59.361Z,5.10
2019-04-10T22:51:29.101Z,4.85
2019-04-10T22:53:58.767Z,5.25
2019-04-10T22:56:28.101Z,4.83
2019-04-10T22:58:57.536Z,5.15
2019-04-10T23:01:27.110Z,5.25
2019-04-10T23:03:57.954Z,5.20
2019-04-10T23:06:27.273Z,5.00
2019-04-10T23:08:56.593Z,4.72
2019-04-10T23:11:31.711Z,5.05
2019-04-10T23:13:58.450Z,5.10
2019-04-10T23:16:28.355Z,4.85
2019-04-10T23:18:58.209Z,5.15
2019-04-10T23:21:28.584Z,4.97
2019-04-10T23:23:59.019Z,4.62
2019-04-10T23:26:29.139Z,4.85
2019-04-10T23:28:58.550Z,5.12
2019-04-10T23:31:27.955Z,5.12
2019-04-10T23:33:57.287Z,4.80
2019-04-10T23:36:26.604Z,4.42
2019-04-10T23:38:55.927Z,5.12
2019-04-10T23:41:25.509Z,4.65
2019-04-10T23:43:55.750Z,4.60
2019-04-10T23:46:26.319Z,5.05
2019-04-10T23:48:55.890Z,4.80
2019-04-10T23:51:25.292Z,5.20
2019-04-10T23:53:55.101Z,4.70
2019-04-10T23:56:24.509Z,4.75
2019-04-10T23:58:54.145Z,4.50
